»·PEaware :: N782FL KBTY-KSAN

N782FL :: KBTY-KSAN

FLIGHT INFORMATION

Flight Status: Arrived
Operator: Privately registered:
United States
More flights under this callsign
Pilot: Luis B. (14232)
Aircraft: BEECH AIRCRAFT BARON
(BE58)
More flights by this aircraft type
Origin: KBTY Beatty
United States
Destination: KSAN San Diego Intl-Lindbergh
United States
More flights between these airports :: More routes between these airports
Route: BTY V135 CLARR V394 DAG V587 DAWNA V21 PDZ V186 HAILE
File this flight plan on PilotEdge
Remarks:
Altitude:
(Current/Filed)
13,000ft
Speed:
(Current/Filed)
190kts
Departed: 04-Dec-17 11:40 AM
Arrived: 04-Dec-17 01:33 PM
Distance/Time
Traveled:
248nm/1:53
Distance/Time
To Go:
Arrived

Flight Plot

Page will automatically refresh every two minutes.

Flight plan parsing failed; only flown route is shown


Map Options




Map Legend


Flown Route
Filed Route
Departure Airport
Arrival Airport
Navaid (VOR, NDB)
Fix

Horizontal Profiles

Position Reports

Time Latitude Longitude Heading Altitude Ground
Speed
04-Dec-17 11:23 36.868399 -116.784842 88 3168ft 0kts
04-Dec-17 11:24 36.868399 -116.784842 88 3168ft 0kts
04-Dec-17 11:25 36.868399 -116.784842 88 3168ft 0kts
04-Dec-17 11:26 36.868399 -116.784842 88 3168ft 0kts
04-Dec-17 11:27 36.868399 -116.784841 86 3168ft 0kts
04-Dec-17 11:28 36.868399 -116.784841 86 3168ft 0kts
04-Dec-17 11:29 36.868399 -116.784841 86 3168ft 0kts
04-Dec-17 11:30 36.868399 -116.784841 86 3168ft 0kts
04-Dec-17 11:31 36.868399 -116.784841 86 3168ft 0kts
04-Dec-17 11:32 36.868399 -116.784841 86 3168ft 0kts
04-Dec-17 11:33 36.868399 -116.784841 86 3168ft 0kts
04-Dec-17 11:34 36.868399 -116.784841 86 3168ft 0kts
04-Dec-17 11:35 36.868399 -116.784841 86 3168ft 0kts
04-Dec-17 11:36 36.868399 -116.784841 86 3168ft 0kts
04-Dec-17 11:37 36.868399 -116.784841 86 3168ft 0kts
04-Dec-17 11:38 36.868399 -116.784841 86 3168ft 0kts
04-Dec-17 11:39 36.868399 -116.784841 86 3168ft 0kts
04-Dec-17 11:40 36.868399 -116.784841 86 3168ft 0kts
04-Dec-17 11:41 36.868614 -116.785054 261 3169ft 10kts
04-Dec-17 11:42 36.863881 -116.786388 178 3136ft 36kts
04-Dec-17 11:43 36.853741 -116.786396 177 3100ft 6kts
04-Dec-17 11:44 36.853401 -116.785886 256 3098ft 0kts
04-Dec-17 11:45 36.856177 -116.786387 359 3108ft 79kts
04-Dec-17 11:46 36.890859 -116.786304 350 4273ft 133kts
04-Dec-17 11:47 36.891458 -116.830905 238 5308ft 145kts
04-Dec-17 11:48 36.852169 -116.833753 160 6245ft 169kts
04-Dec-17 11:49 36.809744 -116.812754 147 7566ft 164kts
04-Dec-17 11:50 36.772142 -116.779927 137 8715ft 164kts
04-Dec-17 11:51 36.745821 -116.737890 102 9964ft 152kts
04-Dec-17 11:52 36.736407 -116.686199 116 10929ft 164kts
04-Dec-17 11:53 36.701801 -116.646759 139 11856ft 168kts
04-Dec-17 11:54 36.665154 -116.609559 140 12750ft 173kts
04-Dec-17 11:55 36.624795 -116.568810 140 13072ft 208kts
04-Dec-17 11:56 36.578627 -116.522220 140 13053ft 212kts
04-Dec-17 11:57 36.533286 -116.476436 140 13055ft 209kts
04-Dec-17 11:58 36.495586 -116.438389 140 13056ft 208kts
04-Dec-17 11:59 36.450530 -116.392973 140 13056ft 208kts
04-Dec-17 12:00 36.405739 -116.347893 141 13056ft 208kts
04-Dec-17 12:01 36.360808 -116.302878 141 13054ft 207kts
04-Dec-17 12:02 36.316009 -116.257969 141 13054ft 207kts
04-Dec-17 12:03 36.271288 -116.213206 141 13055ft 207kts
04-Dec-17 12:04 36.226374 -116.168322 141 13055ft 207kts
04-Dec-17 12:05 36.181447 -116.123495 141 13056ft 207kts
04-Dec-17 12:06 36.136414 -116.078627 141 13056ft 208kts
04-Dec-17 12:07 36.091389 -116.033830 141 13056ft 208kts
04-Dec-17 12:08 36.046330 -115.989048 141 13057ft 208kts
04-Dec-17 12:09 36.001209 -115.944268 141 13057ft 208kts
04-Dec-17 12:10 35.956138 -115.899603 141 13056ft 208kts
04-Dec-17 12:11 35.910710 -115.854673 141 13024ft 209kts
04-Dec-17 12:12 35.876035 -115.820681 141 13017ft 208kts
04-Dec-17 12:13 35.831044 -115.776530 141 13015ft 207kts
04-Dec-17 12:14 35.786102 -115.732308 141 13010ft 207kts
04-Dec-17 12:15 35.740985 -115.687929 141 13008ft 207kts
04-Dec-17 12:16 35.692258 -115.674210 212 13016ft 191kts
04-Dec-17 12:17 35.648973 -115.710444 226 13007ft 187kts
04-Dec-17 12:18 35.610668 -115.753182 230 13004ft 186kts
04-Dec-17 12:19 35.573845 -115.797606 231 13000ft 185kts
04-Dec-17 12:20 35.537437 -115.842547 232 12997ft 185kts
04-Dec-17 12:21 35.501258 -115.887479 232 12994ft 185kts
04-Dec-17 12:22 35.465050 -115.932493 232 12991ft 185kts
04-Dec-17 12:23 35.431439 -115.979636 236 12991ft 183kts
04-Dec-17 12:24 35.397410 -116.026420 234 12991ft 184kts
04-Dec-17 12:25 35.362320 -116.072238 233 12991ft 185kts
04-Dec-17 12:26 35.326798 -116.117828 233 12990ft 184kts
04-Dec-17 12:27 35.291518 -116.162809 233 12991ft 183kts
04-Dec-17 12:28 35.256587 -116.207164 233 13037ft 181kts
04-Dec-17 12:29 35.221862 -116.251187 233 13037ft 181kts
04-Dec-17 12:30 35.186737 -116.295665 233 13037ft 182kts
04-Dec-17 12:31 35.151510 -116.340197 233 13037ft 182kts
04-Dec-17 12:32 35.116310 -116.384666 233 13037ft 182kts
04-Dec-17 12:33 35.081126 -116.429030 233 13037ft 182kts
04-Dec-17 12:34 35.045907 -116.473375 233 13037ft 182kts
04-Dec-17 12:35 35.011601 -116.516533 233 13037ft 181kts
04-Dec-17 12:36 34.976192 -116.559214 212 13019ft 185kts
04-Dec-17 12:37 34.924295 -116.567423 200 13034ft 183kts
04-Dec-17 12:38 34.879176 -116.580190 199 13033ft 175kts
04-Dec-17 12:39 34.832652 -116.589005 195 13032ft 172kts
04-Dec-17 12:40 34.785149 -116.595375 194 13032ft 171kts
04-Dec-17 12:41 34.737898 -116.600759 194 13033ft 171kts
04-Dec-17 12:42 34.690670 -116.605710 193 13096ft 167kts
04-Dec-17 12:43 34.657503 -116.636737 232 13107ft 153kts
04-Dec-17 12:44 34.629245 -116.672406 230 13112ft 156kts
04-Dec-17 12:45 34.598729 -116.710252 230 13112ft 157kts
04-Dec-17 12:46 34.568070 -116.748282 230 13111ft 158kts
04-Dec-17 12:47 34.537363 -116.786379 230 13111ft 158kts
04-Dec-17 12:48 34.506670 -116.824438 230 13110ft 158kts
04-Dec-17 12:49 34.475928 -116.862525 230 13110ft 158kts
04-Dec-17 12:50 34.445281 -116.900439 230 13103ft 158kts
04-Dec-17 12:51 34.414491 -116.938463 230 13080ft 158kts
04-Dec-17 12:52 34.383601 -116.976595 231 13047ft 159kts
04-Dec-17 12:53 34.352635 -117.014785 231 13012ft 159kts
04-Dec-17 12:54 34.322735 -117.052293 235 13098ft 153kts
04-Dec-17 12:55 34.293660 -117.090769 232 13080ft 156kts
04-Dec-17 12:56 34.263145 -117.128134 231 13072ft 156kts
04-Dec-17 12:57 34.232330 -117.164871 231 13071ft 156kts
04-Dec-17 12:58 34.201320 -117.201390 231 13071ft 155kts
04-Dec-17 12:59 34.170208 -117.237802 230 13071ft 155kts
04-Dec-17 13:00 34.139189 -117.273923 230 13071ft 155kts
04-Dec-17 13:01 34.108040 -117.310173 230 13070ft 155kts
04-Dec-17 13:02 34.076949 -117.346312 231 13070ft 155kts
04-Dec-17 13:03 34.045955 -117.382310 231 13068ft 155kts
04-Dec-17 13:04 34.014785 -117.418462 231 13065ft 155kts
04-Dec-17 13:05 33.983764 -117.454400 230 13063ft 155kts
04-Dec-17 13:06 33.952739 -117.490325 230 13062ft 155kts
04-Dec-17 13:07 33.920867 -117.525358 208 13047ft 164kts
04-Dec-17 13:08 33.876965 -117.496549 152 13064ft 194kts
04-Dec-17 13:09 33.833342 -117.458491 153 13063ft 194kts
04-Dec-17 13:10 33.789215 -117.420754 153 13062ft 194kts
04-Dec-17 13:11 33.744946 -117.383351 152 13031ft 195kts
04-Dec-17 13:12 33.700503 -117.345625 152 13019ft 195kts
04-Dec-17 13:13 33.656178 -117.308123 152 13012ft 195kts
04-Dec-17 13:14 33.611947 -117.270791 152 13008ft 195kts
04-Dec-17 13:15 33.567738 -117.233537 152 13008ft 194kts
04-Dec-17 13:16 33.523354 -117.196193 152 13006ft 194kts
04-Dec-17 13:17 33.479033 -117.158952 152 13000ft 195kts
04-Dec-17 13:18 33.431437 -117.133719 173 12990ft 185kts
04-Dec-17 13:19 33.384804 -117.138517 202 12993ft 170kts
04-Dec-17 13:20 33.336568 -117.142673 186 12995ft 178kts
04-Dec-17 13:21 33.286963 -117.136523 180 12997ft 181kts
04-Dec-17 13:22 33.236960 -117.126503 178 12998ft 182kts
04-Dec-17 13:23 33.187163 -117.115249 178 12998ft 183kts
04-Dec-17 13:24 33.133746 -117.103131 176 12385ft 203kts
04-Dec-17 13:25 33.077305 -117.089863 174 11682ft 213kts
04-Dec-17 13:26 33.018232 -117.075789 174 10796ft 219kts
04-Dec-17 13:27 32.968173 -117.063819 173 10048ft 220kts
04-Dec-17 13:28 32.898930 -117.047371 172 8779ft 218kts
04-Dec-17 13:29 32.850024 -117.035467 163 7852ft 216kts
04-Dec-17 13:30 32.789600 -116.995375 151 6537ft 210kts
04-Dec-17 13:31 32.747127 -116.967258 151 5630ft 209kts
04-Dec-17 13:32 32.689444 -116.954574 244 4943ft 188kts
04-Dec-17 13:33 32.687630 -117.003642 288 4239ft 181kts
04-Dec-17 13:34 32.701337 -117.057296 286 3316ft 161kts
04-Dec-17 13:35 32.711589 -117.099403 286 1957ft 123kts
04-Dec-17 13:36 32.719720 -117.133858 289 1027ft 97kts
04-Dec-17 13:37 32.727538 -117.164796 286 374ft 98kts
04-Dec-17 13:38 32.733970 -117.190803 332 16ft 24kts
04-Dec-17 13:39 32.733477 -117.184557 106 17ft 29kts
04-Dec-17 13:40 32.732604 -117.178118 224 22ft 0kts

Navigation Log

Ident Type
Flight plan parsing failed, navigation log unavailable